sensor_id;sensor_type;location;lat;lon;timestamp;P1;durP1;ratioP1;P2;durP2;ratioP2
5929;SDS011;2990;48.746;9.236;2022-08-19T00:00:16;477.88;;;447.73;;
5929;SDS011;2990;48.746;9.236;2022-08-19T00:02:42;497.65;;;466.05;;
5929;SDS011;2990;48.746;9.236;2022-08-19T00:05:08;572.58;;;534.97;;
5929;SDS011;2990;48.746;9.236;2022-08-19T00:07:36;573.33;;;535.05;;
5929;SDS011;2990;48.746;9.236;2022-08-19T00:10:02;559.05;;;522.63;;
5929;SDS011;2990;48.746;9.236;2022-08-19T00:12:30;541.28;;;506.50;;
5929;SDS011;2990;48.746;9.236;2022-08-19T00:14:55;598.15;;;558.80;;
5929;SDS011;2990;48.746;9.236;2022-08-19T00:17:21;548.25;;;512.58;;
5929;SDS011;2990;48.746;9.236;2022-08-19T00:19:47;569.42;;;532.08;;
5929;SDS011;2990;48.746;9.236;2022-08-19T00:22:12;547.42;;;511.67;;
5929;SDS011;2990;48.746;9.236;2022-08-19T00:24:38;584.55;;;546.15;;
5929;SDS011;2990;48.746;9.236;2022-08-19T00:27:06;555.17;;;518.60;;
5929;SDS011;2990;48.746;9.236;2022-08-19T00:29:31;585.45;;;546.22;;
5929;SDS011;2990;48.746;9.236;2022-08-19T00:31:57;614.90;;;573.92;;
5929;SDS011;2990;48.746;9.236;2022-08-19T00:34:24;627.22;;;585.60;;
5929;SDS011;2990;48.746;9.236;2022-08-19T00:36:52;621.47;;;579.08;;
5929;SDS011;2990;48.746;9.236;2022-08-19T00:39:19;677.25;;;631.70;;
5929;SDS011;2990;48.746;9.236;2022-08-19T00:41:44;728.08;;;678.70;;
5929;SDS011;2990;48.746;9.236;2022-08-19T00:44:17;789.53;;;735.35;;
5929;SDS011;2990;48.746;9.236;2022-08-19T00:46:52;851.03;;;791.28;;
5929;SDS011;2990;48.746;9.236;2022-08-19T00:49:23;902.35;;;838.58;;
5929;SDS011;2990;48.746;9.236;2022-08-19T00:52:00;897.00;;;833.13;;
5929;SDS011;2990;48.746;9.236;2022-08-19T00:54:33;906.45;;;840.92;;
5929;SDS011;2990;48.746;9.236;2022-08-19T00:57:02;943.42;;;874.47;;
5929;SDS011;2990;48.746;9.236;2022-08-19T00:59:31;941.95;;;872.60;;
5929;SDS011;2990;48.746;9.236;2022-08-19T01:01:59;988.80;;;914.00;;
5929;SDS011;2990;48.746;9.236;2022-08-19T01:04:25;1003.67;;;927.40;;
5929;SDS011;2990;48.746;9.236;2022-08-19T01:06:50;976.30;;;902.45;;
5929;SDS011;2990;48.746;9.236;2022-08-19T01:09:16;997.88;;;921.60;;
5929;SDS011;2990;48.746;9.236;2022-08-19T01:11:41;1005.70;;;929.00;;
5929;SDS011;2990;48.746;9.236;2022-08-19T01:14:09;1003.17;;;927.17;;
5929;SDS011;2990;48.746;9.236;2022-08-19T01:16:37;988.88;;;914.58;;
5929;SDS011;2990;48.746;9.236;2022-08-19T01:19:09;971.97;;;899.13;;
5929;SDS011;2990;48.746;9.236;2022-08-19T01:21:48;993.35;;;918.38;;
5929;SDS011;2990;48.746;9.236;2022-08-19T01:24:23;1011.90;;;934.40;;
5929;SDS011;2990;48.746;9.236;2022-08-19T01:26:49;1028.15;;;948.95;;
5929;SDS011;2990;48.746;9.236;2022-08-19T01:29:14;1021.03;;;941.75;;
5929;SDS011;2990;48.746;9.236;2022-08-19T01:31:40;1033.35;;;952.88;;
5929;SDS011;2990;48.746;9.236;2022-08-19T01:34:06;1054.03;;;970.53;;
5929;SDS011;2990;48.746;9.236;2022-08-19T01:36:33;1040.82;;;958.67;;
5929;SDS011;2990;48.746;9.236;2022-08-19T01:39:06;1061.53;;;976.88;;
5929;SDS011;2990;48.746;9.236;2022-08-19T01:41:34;1080.10;;;992.30;;
5929;SDS011;2990;48.746;9.236;2022-08-19T01:44:00;1074.47;;;987.97;;
5929;SDS011;2990;48.746;9.236;2022-08-19T01:46:28;1079.35;;;991.85;;
5929;SDS011;2990;48.746;9.236;2022-08-19T01:48:54;1037.40;;;955.35;;
5929;SDS011;2990;48.746;9.236;2022-08-19T01:51:20;1070.55;;;983.30;;
5929;SDS011;2990;48.746;9.236;2022-08-19T01:53:50;1064.97;;;979.78;;
5929;SDS011;2990;48.746;9.236;2022-08-19T01:56:16;1047.50;;;963.72;;
5929;SDS011;2990;48.746;9.236;2022-08-19T01:58:45;1074.07;;;986.95;;
5929;SDS011;2990;48.746;9.236;2022-08-19T02:01:15;1061.15;;;975.00;;
5929;SDS011;2990;48.746;9.236;2022-08-19T02:03:41;1046.65;;;963.58;;
5929;SDS011;2990;48.746;9.236;2022-08-19T02:06:07;1076.97;;;990.30;;
5929;SDS011;2990;48.746;9.236;2022-08-19T02:08:34;1095.47;;;999.38;;
5929;SDS011;2990;48.746;9.236;2022-08-19T02:11:01;1075.68;;;987.85;;
5929;SDS011;2990;48.746;9.236;2022-08-19T02:13:27;1091.82;;;997.58;;
5929;SDS011;2990;48.746;9.236;2022-08-19T02:15:52;1088.18;;;996.30;;
5929;SDS011;2990;48.746;9.236;2022-08-19T02:18:18;1114.80;;;999.90;;
5929;SDS011;2990;48.746;9.236;2022-08-19T02:20:44;1102.80;;;999.90;;
5929;SDS011;2990;48.746;9.236;2022-08-19T02:23:12;1121.35;;;999.90;;
5929;SDS011;2990;48.746;9.236;2022-08-19T02:25:38;1090.75;;;996.85;;
5929;SDS011;2990;48.746;9.236;2022-08-19T02:28:04;1125.78;;;999.90;;
5929;SDS011;2990;48.746;9.236;2022-08-19T02:30:30;1147.70;;;999.90;;
5929;SDS011;2990;48.746;9.236;2022-08-19T02:32:56;1137.82;;;999.90;;
5929;SDS011;2990;48.746;9.236;2022-08-19T02:35:22;1345.00;;;999.90;;
5929;SDS011;2990;48.746;9.236;2022-08-19T02:37:48;1157.75;;;999.90;;
5929;SDS011;2990;48.746;9.236;2022-08-19T02:40:32;1152.28;;;999.90;;
5929;SDS011;2990;48.746;9.236;2022-08-19T02:42:59;1999.90;;;999.90;;
5929;SDS011;2990;48.746;9.236;2022-08-19T02:45:34;1999.90;;;999.90;;
5929;SDS011;2990;48.746;9.236;2022-08-19T02:48:01;1999.90;;;999.90;;
5929;SDS011;2990;48.746;9.236;2022-08-19T02:50:27;1999.90;;;999.90;;
5929;SDS011;2990;48.746;9.236;2022-08-19T02:52:53;1999.90;;;999.90;;
5929;SDS011;2990;48.746;9.236;2022-08-19T02:55:19;1999.90;;;999.90;;
5929;SDS011;2990;48.746;9.236;2022-08-19T02:57:45;1999.90;;;999.90;;
5929;SDS011;2990;48.746;9.236;2022-08-19T03:00:11;1999.90;;;999.90;;
5929;SDS011;2990;48.746;9.236;2022-08-19T03:02:38;1999.90;;;999.90;;
5929;SDS011;2990;48.746;9.236;2022-08-19T03:05:04;1999.90;;;999.90;;
5929;SDS011;2990;48.746;9.236;2022-08-19T03:07:30;1999.90;;;999.90;;
5929;SDS011;2990;48.746;9.236;2022-08-19T03:09:56;1999.90;;;999.90;;
5929;SDS011;2990;48.746;9.236;2022-08-19T03:12:21;1999.90;;;999.90;;
5929;SDS011;2990;48.746;9.236;2022-08-19T03:14:47;1999.90;;;999.90;;
5929;SDS011;2990;48.746;9.236;2022-08-19T03:17:12;1999.90;;;999.90;;
5929;SDS011;2990;48.746;9.236;2022-08-19T03:19:38;1999.90;;;999.90;;
5929;SDS011;2990;48.746;9.236;2022-08-19T03:22:04;1999.90;;;999.90;;
5929;SDS011;2990;48.746;9.236;2022-08-19T03:24:30;1999.90;;;999.90;;
5929;SDS011;2990;48.746;9.236;2022-08-19T03:26:56;1999.90;;;999.90;;
5929;SDS011;2990;48.746;9.236;2022-08-19T03:29:29;1999.90;;;999.90;;
5929;SDS011;2990;48.746;9.236;2022-08-19T03:32:00;1999.90;;;999.90;;
5929;SDS011;2990;48.746;9.236;2022-08-19T03:34:29;1999.90;;;999.90;;
5929;SDS011;2990;48.746;9.236;2022-08-19T03:36:57;1999.90;;;999.90;;
5929;SDS011;2990;48.746;9.236;2022-08-19T03:39:25;1999.90;;;999.90;;
5929;SDS011;2990;48.746;9.236;2022-08-19T03:41:51;1999.90;;;999.90;;
5929;SDS011;2990;48.746;9.236;2022-08-19T03:44:19;1999.90;;;999.90;;
5929;SDS011;2990;48.746;9.236;2022-08-19T03:46:50;1999.90;;;999.90;;
5929;SDS011;2990;48.746;9.236;2022-08-19T03:49:19;1999.90;;;999.90;;
5929;SDS011;2990;48.746;9.236;2022-08-19T03:51:47;1999.90;;;999.90;;
5929;SDS011;2990;48.746;9.236;2022-08-19T03:54:14;1999.90;;;999.90;;
5929;SDS011;2990;48.746;9.236;2022-08-19T03:56:41;1999.90;;;999.90;;
5929;SDS011;2990;48.746;9.236;2022-08-19T03:59:10;1999.90;;;999.90;;
5929;SDS011;2990;48.746;9.236;2022-08-19T04:01:38;1999.90;;;999.90;;
5929;SDS011;2990;48.746;9.236;2022-08-19T04:04:04;1999.90;;;999.90;;
5929;SDS011;2990;48.746;9.236;2022-08-19T04:06:31;1999.90;;;999.90;;
5929;SDS011;2990;48.746;9.236;2022-08-19T04:08:59;1999.90;;;999.90;;
5929;SDS011;2990;48.746;9.236;2022-08-19T04:11:28;1999.90;;;999.90;;
5929;SDS011;2990;48.746;9.236;2022-08-19T04:13:59;1999.90;;;999.90;;
5929;SDS011;2990;48.746;9.236;2022-08-19T04:16:26;1999.90;;;999.90;;
5929;SDS011;2990;48.746;9.236;2022-08-19T04:18:54;1999.90;;;999.90;;
5929;SDS011;2990;48.746;9.236;2022-08-19T04:21:22;1999.90;;;999.90;;
5929;SDS011;2990;48.746;9.236;2022-08-19T04:23:49;1999.90;;;999.90;;
5929;SDS011;2990;48.746;9.236;2022-08-19T04:26:23;1999.90;;;999.90;;
5929;SDS011;2990;48.746;9.236;2022-08-19T04:28:51;1999.90;;;999.90;;
5929;SDS011;2990;48.746;9.236;2022-08-19T04:31:22;1999.90;;;999.90;;
5929;SDS011;2990;48.746;9.236;2022-08-19T04:33:53;1999.90;;;999.90;;
5929;SDS011;2990;48.746;9.236;2022-08-19T04:36:24;1999.90;;;999.90;;
5929;SDS011;2990;48.746;9.236;2022-08-19T04:38:55;1659.45;;;897.45;;
5929;SDS011;2990;48.746;9.236;2022-08-19T04:41:23;747.25;;;692.22;;
5929;SDS011;2990;48.746;9.236;2022-08-19T04:44:08;753.20;;;699.22;;
5929;SDS011;2990;48.746;9.236;2022-08-19T04:46:33;748.20;;;694.10;;
5929;SDS011;2990;48.746;9.236;2022-08-19T04:49:00;791.50;;;733.63;;
5929;SDS011;2990;48.746;9.236;2022-08-19T04:51:27;839.50;;;779.15;;
5929;SDS011;2990;48.746;9.236;2022-08-19T04:53:56;1999.90;;;999.90;;
5929;SDS011;2990;48.746;9.236;2022-08-19T04:56:22;757.05;;;700.88;;
5929;SDS011;2990;48.746;9.236;2022-08-19T04:58:48;826.92;;;767.88;;
5929;SDS011;2990;48.746;9.236;2022-08-19T05:01:20;869.90;;;806.78;;
5929;SDS011;2990;48.746;9.236;2022-08-19T05:03:49;871.10;;;808.20;;
5929;SDS011;2990;48.746;9.236;2022-08-19T05:06:17;864.25;;;801.90;;
5929;SDS011;2990;48.746;9.236;2022-08-19T05:08:44;869.65;;;806.88;;
5929;SDS011;2990;48.746;9.236;2022-08-19T05:13:38;872.95;;;810.28;;
5929;SDS011;2990;48.746;9.236;2022-08-19T05:16:04;861.65;;;799.67;;
5929;SDS011;2990;48.746;9.236;2022-08-19T05:18:30;876.50;;;813.50;;
5929;SDS011;2990;48.746;9.236;2022-08-19T05:21:15;877.60;;;813.92;;
5929;SDS011;2990;48.746;9.236;2022-08-19T05:24:02;859.33;;;797.55;;
5929;SDS011;2990;48.746;9.236;2022-08-19T05:26:28;873.17;;;810.40;;
5929;SDS011;2990;48.746;9.236;2022-08-19T05:28:54;892.45;;;827.25;;
5929;SDS011;2990;48.746;9.236;2022-08-19T05:31:20;884.80;;;820.10;;
5929;SDS011;2990;48.746;9.236;2022-08-19T05:33:46;890.70;;;825.88;;
5929;SDS011;2990;48.746;9.236;2022-08-19T05:36:12;876.78;;;813.17;;
5929;SDS011;2990;48.746;9.236;2022-08-19T05:38:38;873.63;;;810.03;;
5929;SDS011;2990;48.746;9.236;2022-08-19T05:41:11;891.38;;;826.53;;
5929;SDS011;2990;48.746;9.236;2022-08-19T05:43:38;884.97;;;820.95;;
5929;SDS011;2990;48.746;9.236;2022-08-19T05:46:04;878.33;;;814.95;;
5929;SDS011;2990;48.746;9.236;2022-08-19T05:48:31;880.75;;;816.58;;
5929;SDS011;2990;48.746;9.236;2022-08-19T05:50:57;893.60;;;828.55;;
5929;SDS011;2990;48.746;9.236;2022-08-19T05:53:28;897.40;;;831.72;;
5929;SDS011;2990;48.746;9.236;2022-08-19T05:55:53;906.28;;;839.95;;
5929;SDS011;2990;48.746;9.236;2022-08-19T05:58:19;898.38;;;831.97;;
5929;SDS011;2990;48.746;9.236;2022-08-19T06:00:44;914.25;;;846.97;;
5929;SDS011;2990;48.746;9.236;2022-08-19T06:03:10;924.17;;;856.08;;
5929;SDS011;2990;48.746;9.236;2022-08-19T06:05:35;905.00;;;837.17;;
5929;SDS011;2990;48.746;9.236;2022-08-19T06:08:01;911.03;;;843.63;;
5929;SDS011;2990;48.746;9.236;2022-08-19T06:10:27;921.80;;;854.78;;
5929;SDS011;2990;48.746;9.236;2022-08-19T06:12:53;888.35;;;824.38;;
5929;SDS011;2990;48.746;9.236;2022-08-19T06:15:19;833.03;;;774.55;;
5929;SDS011;2990;48.746;9.236;2022-08-19T06:17:44;708.60;;;660.58;;
5929;SDS011;2990;48.746;9.236;2022-08-19T06:20:11;531.50;;;497.38;;
5929;SDS011;2990;48.746;9.236;2022-08-19T06:22:42;294.80;;;278.75;;
5929;SDS011;2990;48.746;9.236;2022-08-19T06:25:09;239.45;;;227.02;;
5929;SDS011;2990;48.746;9.236;2022-08-19T06:27:36;479.38;;;449.83;;
5929;SDS011;2990;48.746;9.236;2022-08-19T06:30:02;549.50;;;514.67;;
5929;SDS011;2990;48.746;9.236;2022-08-19T06:32:29;665.30;;;621.03;;
5929;SDS011;2990;48.746;9.236;2022-08-19T06:34:55;796.20;;;740.25;;
5929;SDS011;2990;48.746;9.236;2022-08-19T06:37:20;869.47;;;807.50;;
5929;SDS011;2990;48.746;9.236;2022-08-19T06:39:47;900.90;;;834.70;;
5929;SDS011;2990;48.746;9.236;2022-08-19T06:42:13;895.15;;;828.00;;
5929;SDS011;2990;48.746;9.236;2022-08-19T06:44:42;918.10;;;850.30;;
5929;SDS011;2990;48.746;9.236;2022-08-19T06:47:14;971.30;;;897.67;;
5929;SDS011;2990;48.746;9.236;2022-08-19T06:49:42;948.47;;;876.25;;
5929;SDS011;2990;48.746;9.236;2022-08-19T06:52:08;970.88;;;895.88;;
5929;SDS011;2990;48.746;9.236;2022-08-19T06:54:36;956.85;;;884.35;;
5929;SDS011;2990;48.746;9.236;2022-08-19T06:57:04;973.20;;;898.03;;
5929;SDS011;2990;48.746;9.236;2022-08-19T06:59:30;955.13;;;882.55;;
5929;SDS011;2990;48.746;9.236;2022-08-19T07:01:57;960.63;;;887.80;;
5929;SDS011;2990;48.746;9.236;2022-08-19T07:04:26;935.88;;;864.58;;
5929;SDS011;2990;48.746;9.236;2022-08-19T07:06:57;970.50;;;896.25;;
5929;SDS011;2990;48.746;9.236;2022-08-19T07:09:25;941.13;;;869.60;;
5929;SDS011;2990;48.746;9.236;2022-08-19T07:11:52;953.05;;;881.00;;
5929;SDS011;2990;48.746;9.236;2022-08-19T07:14:20;977.88;;;904.63;;
5929;SDS011;2990;48.746;9.236;2022-08-19T07:16:49;974.58;;;901.63;;
5929;SDS011;2990;48.746;9.236;2022-08-19T07:19:16;912.53;;;843.92;;
5929;SDS011;2990;48.746;9.236;2022-08-19T07:21:43;967.60;;;895.30;;
5929;SDS011;2990;48.746;9.236;2022-08-19T07:24:10;935.72;;;865.17;;
5929;SDS011;2990;48.746;9.236;2022-08-19T07:26:38;946.92;;;876.05;;
5929;SDS011;2990;48.746;9.236;2022-08-19T07:29:05;911.47;;;843.95;;
5929;SDS011;2990;48.746;9.236;2022-08-19T07:31:32;918.30;;;849.10;;
5929;SDS011;2990;48.746;9.236;2022-08-19T07:34:02;933.75;;;863.72;;
5929;SDS011;2990;48.746;9.236;2022-08-19T07:36:31;920.05;;;851.83;;
5929;SDS011;2990;48.746;9.236;2022-08-19T07:39:00;911.80;;;843.60;;
5929;SDS011;2990;48.746;9.236;2022-08-19T07:41:29;893.35;;;827.72;;
5929;SDS011;2990;48.746;9.236;2022-08-19T07:43:56;895.78;;;830.97;;
5929;SDS011;2990;48.746;9.236;2022-08-19T07:46:23;843.60;;;782.63;;
5929;SDS011;2990;48.746;9.236;2022-08-19T07:48:49;905.70;;;838.88;;
5929;SDS011;2990;48.746;9.236;2022-08-19T08:44:20;1636.50;;;875.45;;
5929;SDS011;2990;48.746;9.236;2022-08-19T08:47:09;1999.90;;;999.90;;
5929;SDS011;2990;48.746;9.236;2022-08-19T08:52:06;1999.90;;;999.90;;
5929;SDS011;2990;48.746;9.236;2022-08-19T08:54:43;1999.90;;;999.90;;
5929;SDS011;2990;48.746;9.236;2022-08-19T08:57:20;1999.90;;;999.90;;
5929;SDS011;2990;48.746;9.236;2022-08-19T08:59:56;1999.90;;;999.90;;
5929;SDS011;2990;48.746;9.236;2022-08-19T09:02:25;1999.90;;;999.90;;
5929;SDS011;2990;48.746;9.236;2022-08-19T09:04:51;1999.90;;;999.90;;
5929;SDS011;2990;48.746;9.236;2022-08-19T09:10:02;1999.90;;;999.90;;
5929;SDS011;2990;48.746;9.236;2022-08-19T09:15:18;1999.90;;;999.90;;
5929;SDS011;2990;48.746;9.236;2022-08-19T09:17:52;1999.90;;;999.90;;
5929;SDS011;2990;48.746;9.236;2022-08-19T09:20:23;1999.90;;;999.90;;
5929;SDS011;2990;48.746;9.236;2022-08-19T09:22:49;1999.90;;;999.90;;
5929;SDS011;2990;48.746;9.236;2022-08-19T09:25:16;1999.90;;;999.90;;
5929;SDS011;2990;48.746;9.236;2022-08-19T09:27:45;1999.90;;;999.90;;
5929;SDS011;2990;48.746;9.236;2022-08-19T09:30:18;1999.90;;;999.90;;
5929;SDS011;2990;48.746;9.236;2022-08-19T09:32:47;1999.90;;;999.90;;
5929;SDS011;2990;48.746;9.236;2022-08-19T09:35:13;1999.90;;;999.90;;
5929;SDS011;2990;48.746;9.236;2022-08-19T09:37:39;1999.90;;;999.90;;
5929;SDS011;2990;48.746;9.236;2022-08-19T10:34:55;1999.90;;;999.90;;
5929;SDS011;2990;48.746;9.236;2022-08-19T10:44:28;1999.90;;;999.90;;
5929;SDS011;2990;48.746;9.236;2022-08-19T10:46:54;1999.90;;;999.90;;
5929;SDS011;2990;48.746;9.236;2022-08-19T10:49:20;727.90;;;677.17;;
5929;SDS011;2990;48.746;9.236;2022-08-19T10:51:47;497.35;;;465.00;;
5929;SDS011;2990;48.746;9.236;2022-08-19T10:56:46;362.50;;;339.90;;
5929;SDS011;2990;48.746;9.236;2022-08-19T10:59:25;380.02;;;355.88;;
5929;SDS011;2990;48.746;9.236;2022-08-19T11:44:04;419.60;;;388.52;;
